Stoetten, Germany

5:37 PM CEST on October 23, 2014 (GMT +0200)
Lauterburg | Change Station
CLOSE
Current Station
Personal Weather Station
Location: Essingen, BADEN-W�RTTEMBERG
Elevation: 2300 ft
Nearby Weather Stations

Elev 2300 ft 48.78 °N, 9.98 °E | Updated 8 seconds ago

Mostly Cloudy
Mostly Cloudy
44.6 °F
Feels Like 45 °F
N
0.0
Wind Variable Wind from NW
Gusts 0.0 mph

Today
High -- | Low -- °F
--% Chance of Precip.
Yesterday
High -- | Low -- °F
Precip. -- in
7:52 AM 6:16 PM
Waning Crescent, 0% visible
Pressure 30.24 in
Visibility 6.2 miles
Clouds Few 2800 ft
Mostly Cloudy 3500 ft
Windchill 45 °F
Dew Point 36 °F
Humidity 72%
Rainfall 0.05 in
Snow Depth Not available.
UV 0.0 out of 12
Pollen Not available.
Air Quality Not available.
Flu Activity Not available.
METAR EDDS 231520Z 33007KT 9999 FEW028 BKN035 10/05 Q1024 NOSIG

More Conditions Fewer Conditions

Pressure 30.24 in
Visibility 6.2 miles
Clouds Few 2800 ft
Mostly Cloudy 3500 ft
Windchill 45 °F
Dew Point 36 °F
Humidity 72%
Rainfall 0.05 in
Snow Depth Not available.
UV 0.0 out of 12
Pollen Not available.
Air Quality Not available.
Flu Activity Not available.
METAR EDDS 231520Z 33007KT 9999 FEW028 BKN035 10/05 Q1024 NOSIG

More Conditions Fewer Conditions

10-Day Weather Forecast

Almanac

Astronomy

Oct. 23, 2014 Rise Set
Actual Time 7:52 AM CEST 6:16 PM CEST
Civil Twilight 7:20 AM CEST 6:48 PM CEST
Nautical Twilight 6:43 AM CEST 7:25 PM CEST
Astronomical Twilight 6:07 AM CEST 8:01 PM CEST
Moon 7:13 AM CEST 6:09 PM CEST
Length of Visible Light 11h 28m
Length of Day
10h 23m
Tomorrow will be 3m 22s shorter.
Waning Crescent, 0% of the Moon is Illuminated
Today
Waning Crescent
Oct 23
New
Oct 30
First Quarter
Nov 6
Full
Nov 14
Last Quarter

Today's Extremes

Country Highs Country Lows

Community

WunderPhotos

Upload Photos

1,764,285 photos uploaded!

Nearby

Snow Depth

Not available.

Earthquake Activity

City Distance Mag. Time & Date
No recent earthquake activity has been reported nearby.
Minimum magnitude displayed is 2.5.

Coastal Water Temperatures

Place Temperature
No Stations Reporting

Nearby Weather Stations